Time;durP1;ratioP1;P1;durP2;ratioP2;P2;SDS_P1;SDS_P2;PMS_P1;PMS_P2;Temp;Humidity;BMP_temperature;BMP_pressure;BME280_temperature;BME280_humidity;BME280_pressure;Samples;Min_cycle;Max_cycle;Signal;HPM_P1;HPM_P2
2023/03/13 00:01:36;;;;;;;9.10;2.70;;;8.20;81.50;;;11.52;49.51;97127.16;5030871;28;20041;-47
2023/03/13 00:04:03;;;;;;;8.27;3.30;;;8.20;81.50;;;11.53;49.77;97128.81;5029823;28;20053;-48
2023/03/13 00:06:35;;;;;;;8.17;3.03;;;8.30;81.70;;;11.55;49.79;97129.44;5029464;28;20060;-49
2023/03/13 00:09:06;;;;;;;13.47;3.10;;;8.30;81.80;;;11.57;49.90;97118.63;5030788;28;20417;-45
2023/03/13 00:11:34;;;;;;;4.87;2.73;;;8.30;81.80;;;11.60;49.89;97118.25;5030829;28;20042;-47
2023/03/13 00:14:04;;;;;;;8.70;4.20;;;8.30;81.70;;;11.61;49.81;97117.25;5030410;28;20162;-45
2023/03/13 00:16:34;;;;;;;9.60;3.20;;;8.30;81.80;;;11.65;49.55;97112.38;5029471;28;20050;-46
2023/03/13 00:19:03;;;;;;;8.00;3.53;;;8.40;81.70;;;11.67;49.77;97110.34;5030747;28;20041;-47
2023/03/13 00:21:31;;;;;;;10.60;3.40;;;8.40;81.50;;;11.69;49.51;97109.19;5030352;28;20046;-47
2023/03/13 00:24:00;;;;;;;11.40;3.40;;;8.40;81.40;;;11.71;49.50;97111.66;5030218;28;20045;-46
2023/03/13 00:26:29;;;;;;;9.10;2.80;;;8.50;81.50;;;11.73;49.79;97109.63;5033909;28;20060;-45
2023/03/13 00:28:56;;;;;;;8.33;2.90;;;8.50;81.50;;;11.75;49.65;97102.31;5034162;28;20440;-45
2023/03/13 00:31:28;;;;;;;7.70;3.10;;;8.40;81.70;;;11.76;49.59;97095.94;5033082;28;20052;-44
2023/03/13 00:34:01;;;;;;;9.13;4.20;;;8.50;81.50;;;11.78;49.68;97097.41;5033858;28;20041;-44
2023/03/13 00:36:33;;;;;;;11.13;4.00;;;8.50;81.60;;;11.80;49.70;97095.38;5033078;28;20046;-45
2023/03/13 00:39:05;;;;;;;6.90;2.90;;;8.50;81.50;;;11.82;49.65;97085.38;5034504;28;20064;-45
2023/03/13 00:41:36;;;;;;;9.10;3.93;;;8.50;81.50;;;11.83;49.81;97088.88;5032345;28;20042;-47
2023/03/13 00:44:04;;;;;;;8.50;3.23;;;8.60;81.50;;;11.83;49.63;97084.38;5034008;28;20048;-50
2023/03/13 00:46:32;;;;;;;9.27;2.63;;;8.50;81.40;;;11.85;49.44;97076.19;5032560;28;20417;-48
2023/03/13 00:49:00;;;;;;;9.00;2.83;;;8.60;81.30;;;11.88;49.88;97073.13;5032546;28;20049;-50
2023/03/13 00:51:28;;;;;;;6.60;3.63;;;8.60;81.20;;;11.91;49.59;97080.00;5033785;28;20041;-48
2023/03/13 00:54:01;;;;;;;8.27;3.33;;;8.60;81.10;;;11.90;49.42;97076.47;5032104;28;20057;-45
2023/03/13 00:56:29;;;;;;;8.60;2.60;;;8.60;81.00;;;11.90;49.45;97071.16;5031303;28;20037;-47
2023/03/13 00:58:58;;;;;;;7.63;2.50;;;8.60;81.00;;;11.92;49.97;97070.97;5032680;28;20050;-48
2023/03/13 01:01:32;;;;;;;9.07;3.50;;;8.70;81.10;;;11.95;49.53;97070.59;5033762;28;20045;-47
2023/03/13 01:04:05;;;;;;;5.50;2.70;;;8.70;81.00;;;11.97;49.31;97061.41;5032115;28;20513;-46
2023/03/13 01:06:37;;;;;;;5.90;2.47;;;8.70;80.90;;;11.99;49.25;97058.56;5033450;28;20049;-45
2023/03/13 01:09:06;;;;;;;8.43;2.27;;;8.70;80.80;;;12.01;49.70;97052.00;5032439;28;20045;-47
2023/03/13 01:11:37;;;;;;;6.73;2.50;;;8.80;80.60;;;12.03;49.65;97049.16;5016108;28;20053;-46
2023/03/13 01:14:14;;;;;;;8.63;2.63;;;8.80;80.50;;;12.06;49.45;97035.47;5033307;28;20052;-48
2023/03/13 01:16:42;;;;;;;8.53;3.20;;;8.80;80.30;;;12.07;49.37;97042.44;5032093;28;20432;-46
2023/03/13 01:19:13;;;;;;;6.33;2.50;;;8.80;80.20;;;12.10;49.30;97041.28;5032609;28;20421;-47
2023/03/13 01:21:43;;;;;;;4.53;2.10;;;8.90;80.20;;;12.10;49.31;97031.41;5033120;28;20049;-45
2023/03/13 01:24:12;;;;;;;6.20;2.40;;;8.90;80.10;;;12.12;49.39;97025.91;5033534;28;20049;-49
2023/03/13 01:26:39;;;;;;;7.63;2.10;;;8.90;80.00;;;12.13;49.31;97014.19;5032596;28;20044;-48
2023/03/13 01:29:07;;;;;;;9.27;2.87;;;8.90;79.90;;;12.14;49.19;97015.88;5033446;28;20056;-48
2023/03/13 01:31:35;;;;;;;8.10;2.60;;;9.00;79.70;;;12.13;49.16;97012.34;5032106;28;20042;-46
2023/03/13 01:34:07;;;;;;;5.73;3.27;;;9.00;79.60;;;12.13;49.17;97009.69;5032848;28;20448;-47
2023/03/13 01:36:36;;;;;;;7.53;2.77;;;9.00;79.60;;;12.14;49.57;97006.00;5028418;28;20076;-46
2023/03/13 01:39:05;;;;;;;7.23;2.30;;;9.00;79.40;;;12.15;49.36;97013.00;5031528;28;20057;-51
2023/03/13 01:41:33;;;;;;;5.97;2.40;;;9.00;79.30;;;12.18;49.41;96999.28;5031313;28;20056;-46
2023/03/13 01:44:00;;;;;;;5.80;2.00;;;9.10;79.50;;;12.23;49.09;96995.22;5032893;28;20037;-47
2023/03/13 01:46:32;;;;;;;7.33;2.20;;;9.10;79.50;;;12.24;49.26;96989.72;5032747;28;20436;-49
2023/03/13 01:49:34;;;;;;;4.73;2.07;;;9.10;79.50;;;12.28;49.06;96984.81;4996381;28;20057;-45
2023/03/13 01:52:24;;;;;;;4.33;2.50;;;9.10;79.60;;;12.31;49.02;96984.44;5030922;28;20060;-47
2023/03/13 01:55:16;;;;;;;5.97;2.13;;;9.10;79.60;;;12.34;49.37;96973.38;5033962;28;20425;-47
2023/03/13 01:57:51;;;;;;;5.77;1.93;;;9.10;79.40;;;12.35;49.15;96969.72;5031132;28;20037;-46
2023/03/13 02:00:30;;;;;;;5.72;2.28;;;9.20;80.10;;;12.39;49.18;96971.00;5031545;28;20037;-49
2023/03/13 02:03:09;;;;;;;7.60;2.20;;;9.20;79.20;;;12.43;49.34;96963.41;5031272;28;20052;-47
2023/03/13 02:05:40;;;;;;;4.60;1.77;;;9.20;79.00;;;12.43;48.96;96956.25;5016114;28;20551;-45
2023/03/13 02:08:22;;;;;;;4.53;2.07;;;9.30;79.00;;;12.47;49.01;96956.69;5014162;28;20417;-50
2023/03/13 02:11:15;;;;;;;7.30;2.63;;;9.30;78.80;;;12.47;49.09;96938.84;5030737;28;20049;-46
2023/03/13 02:13:43;;;;;;;5.23;1.93;;;9.30;78.80;;;12.51;49.04;96942.78;5026134;28;20080;-48
2023/03/13 02:16:10;;;;;;;5.33;1.90;;;9.40;79.50;;;12.51;48.95;96936.59;5031520;28;20061;-51
2023/03/13 02:18:38;;;;;;;8.23;1.80;;;9.40;78.40;;;12.50;49.08;96943.78;5030157;28;20052;-45
2023/03/13 02:21:35;;;;;;;8.37;1.87;;;9.40;78.20;;;12.53;49.24;96937.25;5030490;28;20050;-50
2023/03/13 02:24:55;;;;;;;6.50;1.90;;;9.50;78.20;;;12.53;49.02;96940.72;5016570;28;20084;-47
2023/03/13 02:27:24;;;;;;;5.97;1.43;;;9.50;78.00;;;12.58;49.21;96938.31;5008973;28;20041;-49
2023/03/13 02:29:52;;;;;;;5.97;1.90;;;9.50;78.10;;;12.59;49.03;96928.47;4993267;28;20037;-49
2023/03/13 02:32:22;;;;;;;4.03;1.67;;;9.50;78.00;;;12.57;49.03;96928.66;4993511;28;20516;-45
2023/03/13 02:34:55;;;;;;;4.37;2.03;;;9.50;78.00;;;12.61;49.01;96923.75;5031186;28;20041;-47
2023/03/13 02:37:26;;;;;;;3.70;1.70;;;9.50;77.90;;;12.67;49.15;96920.31;5014633;28;20049;-49
2023/03/13 02:39:58;;;;;;;4.97;1.70;;;9.50;78.10;;;12.67;48.84;96914.97;5014536;28;20049;-47
2023/03/13 02:42:28;;;;;;;4.53;1.50;;;9.60;78.10;;;12.68;49.22;96897.94;5023203;28;20493;-46
2023/03/13 02:44:55;;;;;;;4.50;1.50;;;9.60;78.10;;;12.70;49.20;96903.09;5030518;28;20068;-50
2023/03/13 02:47:24;;;;;;;3.53;1.30;;;9.60;78.20;;;12.70;49.01;96895.91;5013868;28;20416;-49
2023/03/13 02:49:53;;;;;;;4.63;1.80;;;9.60;78.10;;;12.72;49.19;96891.19;5030090;28;20054;-46
2023/03/13 02:52:27;;;;;;;4.53;1.50;;;9.60;78.20;;;12.76;48.97;96878.28;5030097;28;20052;-46
2023/03/13 02:55:05;;;;;;;;;;;9.60;78.40;;;12.84;49.08;96872.78;5030983;28;20061;-50
2023/03/13 02:57:34;;;;;;;3.87;2.03;;;9.60;78.40;;;12.88;48.98;96873.25;5030314;28;19928;-48
2023/03/13 03:00:05;;;;;;;3.70;1.67;;;9.60;78.70;;;12.86;48.94;96864.59;5030188;28;20054;-47
2023/03/13 03:02:33;;;;;;;8.63;1.93;;;9.70;78.80;;;12.89;49.05;96861.50;5031520;28;20033;-49
2023/03/13 03:05:01;;;;;;;5.20;1.67;;;9.70;78.70;;;12.90;49.04;96863.19;5030287;28;20045;-48
2023/03/13 03:07:29;;;;;;;7.70;1.87;;;9.70;78.70;;;12.91;49.25;96857.66;5030605;28;20068;-46
2023/03/13 03:09:56;;;;;;;2.33;1.37;;;9.70;78.80;;;12.91;49.20;96852.31;5030482;28;20050;-50
2023/03/13 03:12:24;;;;;;;2.00;1.10;;;9.70;79.00;;;12.95;49.37;96863.41;5030032;28;20045;-45
2023/03/13 03:14:52;;;;;;;6.23;1.60;;;9.80;79.40;;;12.95;49.31;96850.03;5030632;28;20061;-48
2023/03/13 03:17:20;;;;;;;2.40;1.20;;;9.70;79.60;;;12.99;49.51;96848.66;5029877;28;20041;-46
2023/03/13 03:19:48;;;;;;;4.50;1.57;;;9.80;79.70;;;13.03;49.46;96849.06;5030528;28;20065;-51
2023/03/13 03:22:15;;;;;;;4.13;2.40;;;9.80;80.10;;;13.03;49.86;96852.59;5029770;28;20049;-48
2023/03/13 03:24:43;;;;;;;2.40;1.10;;;9.90;80.30;;;13.04;49.95;96854.22;5029901;28;20417;-50
2023/03/13 03:27:10;;;;;;;4.57;1.67;;;9.90;80.70;;;13.06;49.77;96851.38;5031003;28;20049;-49
2023/03/13 03:29:44;;;;;;;1.73;1.20;;;9.90;80.60;;;13.12;49.96;96842.56;5030169;28;20041;-47
2023/03/13 03:32:12;;;;;;;3.50;1.50;;;10.00;80.80;;;13.14;49.97;96844.03;5030992;28;20041;-49
2023/03/13 03:34:39;;;;;;;4.07;1.70;;;10.00;80.90;;;13.18;49.99;96850.63;5030099;28;20497;-47
2023/03/13 03:37:08;;;;;;;4.37;1.90;;;10.00;80.80;;;13.21;49.95;96846.72;5030774;28;20040;-49
2023/03/13 03:39:35;;;;;;;3.30;1.30;;;10.10;80.80;;;13.26;49.84;96843.44;5031134;28;20101;-47
2023/03/13 03:42:05;;;;;;;3.47;2.07;;;10.10;80.60;;;13.27;49.83;96834.41;5029973;28;20069;-46
2023/03/13 03:44:32;;;;;;;3.27;1.50;;;10.10;80.80;;;13.29;50.11;96835.03;5029538;28;20502;-47
2023/03/13 03:47:00;;;;;;;2.80;2.13;;;10.10;80.80;;;13.30;49.93;96845.56;5029546;28;20382;-49
2023/03/13 03:49:33;;;;;;;3.83;1.60;;;10.20;81.00;;;13.32;50.10;96843.53;5029813;28;20060;-48
2023/03/13 03:52:00;;;;;;;3.83;1.17;;;10.20;81.10;;;13.31;50.58;96833.84;5030243;28;20444;-51
2023/03/13 03:54:34;;;;;;;3.03;1.00;;;10.20;82.20;;;13.34;50.27;96833.47;5029842;28;20053;-47
2023/03/13 03:57:02;;;;;;;2.40;1.00;;;10.20;82.30;;;13.33;50.79;96826.44;5029964;28;20045;-47
2023/03/13 03:59:30;;;;;;;3.20;1.23;;;10.20;83.00;;;13.31;51.03;96825.81;5014687;28;20037;-47
2023/03/13 04:02:02;;;;;;;5.37;1.20;;;10.20;84.00;;;13.32;51.40;96816.78;5034659;28;20037;-47
2023/03/13 04:04:32;;;;;;;1.17;0.83;;;10.20;84.80;;;13.29;51.68;96824.34;5010253;28;20037;-47
2023/03/13 04:07:18;;;;;;;2.07;0.80;;;10.20;85.70;;;13.32;51.86;96819.47;5033406;28;20288;-49
2023/03/13 04:09:46;;;;;;;5.20;1.10;;;10.30;86.30;;;13.31;52.08;96819.66;5035096;28;20049;-49
2023/03/13 04:12:21;;;;;;;1.57;1.43;;;10.40;87.00;;;13.37;52.15;96810.84;5033309;28;20057;-45
2023/03/13 04:14:51;;;;;;;1.57;0.80;;;10.40;87.10;;;13.40;52.52;96818.47;5033878;28;20440;-48
2023/03/13 04:17:20;;;;;;;1.13;0.90;;;10.50;87.80;;;13.45;52.37;96812.53;5033159;28;20045;-47
2023/03/13 04:19:48;;;;;;;1.07;0.60;;;10.50;88.20;;;13.42;52.91;96804.91;5034076;28;20042;-46
2023/03/13 04:22:15;;;;;;;4.30;1.43;;;10.50;89.30;;;13.45;52.93;96802.66;5033377;28;20046;-47
2023/03/13 04:24:50;;;;;;;1.37;0.67;;;10.60;90.10;;;13.35;53.56;96799.53;5034680;28;20405;-50
2023/03/13 04:27:19;;;;;;;1.20;0.70;;;10.60;92.40;;;13.30;53.91;96802.81;5033016;28;20049;-50
2023/03/13 04:29:48;;;;;;;2.03;0.90;;;10.50;93.10;;;13.40;53.50;96778.38;5032803;28;20053;-45
2023/03/13 04:32:34;;;;;;;1.80;0.90;;;10.60;93.00;;;13.47;53.46;96776.53;5027206;28;20052;-49
2023/03/13 04:35:20;;;;;;;1.87;0.87;;;10.60;93.40;;;13.45;53.76;96789.28;5035073;28;20056;-50
2023/03/13 04:38:13;;;;;;;1.27;0.90;;;10.60;94.90;;;13.47;53.68;96802.44;5030184;28;20049;-46
2023/03/13 04:41:04;;;;;;;2.53;0.77;;;10.60;94.90;;;13.46;54.22;96782.09;5020002;28;20057;-48
2023/03/13 04:44:10;;;;;;;1.83;1.00;;;10.60;96.40;;;13.53;54.00;96786.44;5052045;28;20056;-46
2023/03/13 04:47:01;;;;;;;2.57;1.00;;;10.70;97.10;;;13.52;54.01;96774.09;5051066;28;20053;-50
2023/03/13 04:49:59;;;;;;;2.70;0.83;;;10.70;98.20;;;13.57;54.27;96779.66;5028678;28;20057;-47
2023/03/13 04:52:43;;;;;;;5.03;1.08;;;10.70;99.00;;;13.61;54.12;96772.06;5026093;28;20500;-45
2023/03/13 04:55:20;;;;;;;1.23;0.80;;;10.70;99.70;;;13.62;54.10;96768.34;5032662;28;20421;-46
2023/03/13 04:58:05;;;;;;;2.97;0.60;;;10.70;99.70;;;13.67;54.35;96779.28;5032368;28;20052;-48
2023/03/13 05:00:46;;;;;;;2.83;0.70;;;10.80;99.90;;;13.66;54.36;96771.47;5032824;28;20052;-46
2023/03/13 05:03:34;;;;;;;1.70;0.80;;;10.80;99.90;;;13.63;54.50;96780.72;5025044;28;20038;-48
2023/03/13 05:06:33;;;;;;;1.10;0.80;;;10.70;99.90;;;13.64;54.49;96776.19;5032474;28;20060;-45
2023/03/13 05:09:23;;;;;;;1.70;1.00;;;10.80;99.90;;;13.67;54.72;96791.84;5032561;28;20057;-49
2023/03/13 05:12:09;;;;;;;1.03;0.80;;;10.80;99.90;;;13.55;55.13;96770.19;5032381;28;20068;-45
2023/03/13 05:14:52;;;;;;;1.87;0.80;;;10.80;99.90;;;13.69;54.57;96787.94;5032764;28;20072;-52
2023/03/13 05:17:34;;;;;;;1.13;0.77;;;10.80;99.90;;;13.71;54.71;96777.84;5024225;28;20045;-51
2023/03/13 05:20:20;;;;;;;1.07;0.60;;;10.90;99.90;;;13.76;54.59;96779.91;5032477;28;20052;-52
2023/03/13 05:23:00;;;;;;;1.57;0.67;;;10.90;99.90;;;13.77;54.60;96785.06;5032445;28;20042;-50
2023/03/13 05:25:49;;;;;;;1.30;0.77;;;10.90;99.90;;;13.71;55.15;96777.84;5027812;28;20041;-49
2023/03/13 05:28:52;;;;;;;1.63;0.87;;;10.90;99.90;;;13.82;54.52;96776.41;5031394;28;20563;-47
2023/03/13 05:31:33;;;;;;;1.67;0.90;;;10.90;99.90;;;13.88;54.56;96767.59;5023336;28;20501;-45
2023/03/13 05:34:00;;;;;;;0.50;0.50;;;11.00;99.90;;;13.89;54.57;96766.56;5033547;28;20072;-47
2023/03/13 05:36:47;;;;;;;1.83;0.67;;;11.00;99.90;;;13.91;54.54;96767.19;5028812;28;20412;-49
2023/03/13 05:39:33;;;;;;;1.17;0.67;;;11.00;99.90;;;13.93;54.50;96765.13;5034764;28;20049;-49
2023/03/13 05:42:20;;;;;;;0.83;0.80;;;11.00;99.90;;;13.92;54.70;96782.22;5032861;28;20054;-46
2023/03/13 05:45:02;;;;;;;1.70;0.70;;;11.00;99.90;;;13.92;54.79;96781.38;5033040;28;20422;-51
2023/03/13 05:47:47;;;;;;;0.80;0.60;;;11.00;99.90;;;13.93;54.98;96775.00;5025094;28;20422;-49
2023/03/13 05:50:41;;;;;;;1.35;0.50;;;11.00;99.90;;;13.96;54.80;96763.91;5036896;28;20053;-48
2023/03/13 05:53:31;;;;;;;0.87;0.57;;;11.10;99.90;;;13.93;55.01;96759.78;5032303;28;20060;-48
2023/03/13 05:56:22;;;;;;;1.03;0.80;;;11.10;99.90;;;14.02;54.93;96757.75;5031094;28;20068;-48
2023/03/13 05:59:03;;;;;;;2.97;0.70;;;11.10;99.90;;;14.06;54.79;96758.16;5031882;28;20456;-49
2023/03/13 06:01:39;;;;;;;0.60;0.60;;;11.10;99.90;;;14.08;54.80;96759.59;5031615;28;20041;-47
2023/03/13 06:04:34;;;;;;;1.58;0.60;;;11.20;99.90;;;14.13;54.62;96775.03;5033267;28;20049;-48
2023/03/13 06:07:02;;;;;;;0.60;0.60;;;11.20;99.90;;;14.12;54.63;96766.19;5031333;28;20056;-48
2023/03/13 06:09:29;;;;;;;2.83;0.70;;;11.20;99.90;;;14.11;54.69;96766.38;5031228;28;20065;-49
2023/03/13 06:11:58;;;;;;;0.77;0.40;;;11.20;99.90;;;14.12;54.78;96763.50;5031171;28;20049;-49
2023/03/13 06:14:26;;;;;;;0.73;0.68;;;11.30;99.90;;;14.18;54.47;96760.00;5031502;28;20065;-48
2023/03/13 06:17:07;;;;;;;1.70;0.47;;;11.30;99.90;;;14.22;54.63;96752.38;5031155;28;20053;-48
2023/03/13 06:19:34;;;;;;;0.47;0.47;;;11.30;99.90;;;14.24;54.51;96760.22;5032360;28;20042;-47
2023/03/13 06:22:02;;;;;;;1.85;0.50;;;11.30;99.90;;;14.25;54.55;96757.34;5030651;28;20048;-44
2023/03/13 06:24:29;;;;;;;1.38;0.98;;;11.40;99.90;;;14.27;54.58;96751.75;5032330;28;20045;-50
2023/03/13 06:26:57;;;;;;;1.27;0.70;;;11.40;99.90;;;14.33;54.27;96756.31;5030702;28;20046;-51
2023/03/13 06:29:25;;;;;;;0.73;0.52;;;11.40;99.90;;;14.37;54.31;96760.22;5031741;28;20226;-48
2023/03/13 06:31:52;;;;;;;0.57;0.50;;;11.40;99.90;;;14.37;54.44;96747.66;5030960;28;20053;-44
2023/03/13 06:34:20;;;;;;;0.75;0.50;;;11.40;99.90;;;14.42;54.38;96752.38;5031927;28;20049;-50
2023/03/13 06:36:47;;;;;;;1.30;0.65;;;11.50;99.90;;;14.42;54.26;96752.38;5031623;28;20080;-51
2023/03/13 06:39:15;;;;;;;0.65;0.50;;;11.50;99.90;;;14.43;54.25;96742.50;5029876;28;20053;-46
2023/03/13 06:41:42;;;;;;;1.27;0.50;;;11.50;99.90;;;14.47;54.39;96765.16;5031963;28;20044;-47
2023/03/13 06:44:10;;;;;;;1.00;0.63;;;11.60;99.90;;;14.48;54.35;96767.63;5031363;28;20490;-47
2023/03/13 06:46:38;;;;;;;0.57;0.57;;;11.60;99.90;;;14.51;54.26;96764.53;5023650;28;20034;-48
2023/03/13 06:49:05;;;;;;;0.68;0.68;;;11.60;99.90;;;14.56;54.17;96767.44;5031797;28;20523;-47
2023/03/13 06:51:33;;;;;;;0.85;0.63;;;11.60;99.90;;;14.62;54.13;96772.97;5031895;28;20048;-46
2023/03/13 06:54:02;;;;;;;2.03;0.68;;;11.70;99.90;;;14.59;54.45;96770.72;5031756;28;20050;-47
2023/03/13 06:56:31;;;;;;;1.23;0.80;;;11.70;99.90;;;14.60;54.37;96767.84;5031539;28;20050;-46
2023/03/13 06:58:58;;;;;;;2.17;0.60;;;11.70;99.90;;;14.65;54.23;96780.59;5031668;28;20045;-45
2023/03/13 07:01:26;;;;;;;1.00;0.88;;;11.70;99.90;;;14.70;54.15;96778.97;5031798;28;20049;-46
2023/03/13 07:03:54;;;;;;;0.70;0.68;;;11.70;99.90;;;14.72;54.12;96789.47;5031648;28;20052;-50
2023/03/13 07:06:22;;;;;;;0.80;0.70;;;11.80;99.90;;;14.72;54.15;96779.56;5031211;28;20053;-46
2023/03/13 07:08:49;;;;;;;0.65;0.52;;;11.80;99.90;;;14.76;54.23;96780.78;5031356;28;20048;-49
2023/03/13 07:11:17;;;;;;;1.63;0.77;;;11.80;99.90;;;14.78;54.10;96780.59;5030023;28;20050;-50
2023/03/13 07:13:45;;;;;;;0.82;0.57;;;11.80;99.90;;;14.70;54.56;96783.50;5030533;28;20489;-45
2023/03/13 07:16:13;;;;;;;0.60;0.57;;;11.80;99.90;;;14.80;54.33;96775.84;5031456;28;20497;-46
2023/03/13 07:18:41;;;;;;;0.82;0.65;;;11.80;99.90;;;14.83;54.17;96769.25;5023293;28;20034;-45
2023/03/13 07:21:09;;;;;;;1.17;0.90;;;11.80;99.90;;;14.82;54.39;96765.75;5030411;28;20041;-47
2023/03/13 07:23:37;;;;;;;0.52;0.50;;;11.80;99.90;;;14.87;54.38;96775.81;5031393;28;20393;-45
2023/03/13 07:26:14;;;;;;;0.70;0.63;;;11.90;99.90;;;14.88;54.34;96774.81;5030225;28;20422;-46
2023/03/13 07:28:42;;;;;;;1.17;0.90;;;11.90;99.90;;;14.87;54.20;96768.63;5023852;28;20041;-50
2023/03/13 07:31:14;;;;;;;2.45;0.65;;;11.90;99.90;;;14.87;54.58;96765.09;5031167;28;20046;-45
2023/03/13 07:33:43;;;;;;;1.25;0.70;;;11.90;99.90;;;14.90;54.49;96762.00;5031280;28;20072;-46
2023/03/13 07:36:14;;;;;;;1.53;0.87;;;11.90;99.90;;;14.98;54.30;96763.66;5035483;28;20045;-44
2023/03/13 07:38:42;;;;;;;0.50;0.50;;;12.00;99.90;;;15.03;54.21;96755.81;5024456;28;20120;-51
2023/03/13 07:41:14;;;;;;;0.43;0.43;;;12.00;99.90;;;15.05;54.02;96753.75;5035251;28;20056;-49
2023/03/13 07:43:41;;;;;;;0.80;0.65;;;12.10;99.90;;;15.06;54.07;96758.06;5032097;28;20409;-45
2023/03/13 07:46:13;;;;;;;0.50;0.45;;;12.10;99.90;;;15.07;54.03;96748.97;5027543;28;20042;-51
2023/03/13 07:48:42;;;;;;;0.65;0.52;;;12.10;99.90;;;15.11;54.10;96744.84;5028478;28;20038;-45
2023/03/13 07:51:15;;;;;;;0.65;0.65;;;12.20;99.90;;;15.13;54.19;96732.88;5027310;28;20053;-48
2023/03/13 07:53:46;;;;;;;3.50;0.57;;;12.20;99.90;;;15.22;54.01;96752.22;5033544;28;20052;-45
2023/03/13 07:56:17;;;;;;;3.05;0.82;;;12.30;99.90;;;15.23;53.95;96740.44;5034337;28;20041;-49
2023/03/13 07:58:45;;;;;;;1.77;0.82;;;12.30;99.90;;;15.26;53.73;96720.47;5034903;28;20052;-45
2023/03/13 08:01:21;;;;;;;0.43;0.35;;;12.30;99.90;;;15.38;53.74;96731.34;5033713;28;20049;-48
2023/03/13 08:03:54;;;;;;;0.82;0.57;;;12.40;99.90;;;15.49;53.53;96709.16;5034786;28;20052;-46
2023/03/13 08:06:25;;;;;;;0.70;0.70;;;12.50;99.90;;;15.55;53.57;96705.66;5034659;28;20046;-50
2023/03/13 08:08:57;;;;;;;0.65;0.52;;;12.60;99.90;;;15.58;53.25;96699.84;5034402;28;20112;-49
2023/03/13 08:11:26;;;;;;;1.05;0.90;;;12.60;99.50;;;15.59;53.21;96703.38;5034634;28;20049;-50
2023/03/13 08:13:56;;;;;;;0.70;0.70;;;12.60;99.20;;;15.59;53.43;96701.50;5034871;28;20425;-51
2023/03/13 08:16:32;;;;;;;0.80;0.60;;;12.60;98.30;;;15.58;53.29;96702.53;5034043;28;20049;-50
2023/03/13 08:19:04;;;;;;;0.60;0.60;;;12.70;98.60;;;15.49;53.53;96698.44;5033522;28;20056;-50
2023/03/13 08:21:35;;;;;;;1.15;0.77;;;12.60;97.60;;;15.53;53.39;96703.19;5035143;28;20484;-46
2023/03/13 08:24:06;;;;;;;1.65;1.08;;;12.70;97.60;;;15.51;53.20;96689.16;5034433;28;20045;-50
2023/03/13 08:26:37;;;;;;;1.00;0.70;;;12.60;97.60;;;15.45;53.43;96700.75;5033939;28;20049;-49
2023/03/13 08:29:12;;;;;;;0.95;0.85;;;12.60;96.60;;;15.45;53.60;96719.53;5034400;28;20041;-49
2023/03/13 08:31:51;;;;;;;0.60;0.60;;;12.70;96.30;;;15.41;53.40;96702.22;5034261;28;20585;-51
2023/03/13 08:34:19;;;;;;;1.48;0.77;;;12.70;94.70;;;15.39;53.41;96706.97;5034352;28;20060;-49
2023/03/13 08:36:47;;;;;;;1.83;0.93;;;12.80;93.20;;;15.49;53.32;96712.69;5033952;28;20044;-48
2023/03/13 08:39:20;;;;;;;0.80;0.77;;;12.80;93.10;;;15.47;53.55;96720.16;5034356;28;20437;-51
2023/03/13 08:41:48;;;;;;;2.63;0.75;;;12.90;93.00;;;15.51;53.31;96718.66;5026549;28;20414;-47
2023/03/13 08:44:18;;;;;;;3.22;0.95;;;12.90;91.60;;;15.66;52.89;96717.53;5032970;28;20045;-46
2023/03/13 08:46:48;;;;;;;1.02;0.85;;;13.00;91.20;;;15.65;52.83;96721.28;5024521;28;20041;-49
2023/03/13 08:49:16;;;;;;;5.75;1.08;;;13.00;90.50;;;15.73;52.71;96716.50;5034455;28;20417;-47
2023/03/13 08:51:44;;;;;;;0.98;0.80;;;13.00;89.90;;;15.75;52.62;96705.56;5034070;28;20052;-46
2023/03/13 08:54:11;;;;;;;2.30;1.30;;;13.10;89.60;;;15.73;52.56;96713.00;5032917;28;20049;-48
2023/03/13 08:56:40;;;;;;;1.23;0.95;;;13.20;88.80;;;15.85;52.39;96705.06;5033583;28;20555;-45
2023/03/13 08:59:09;;;;;;;0.77;0.63;;;13.20;87.80;;;15.86;52.27;96707.53;5040694;28;20050;-49
2023/03/13 09:01:36;;;;;;;2.08;1.05;;;13.30;87.50;;;15.88;52.12;96702.78;5033374;28;20060;-49
2023/03/13 09:04:05;;;;;;;1.48;0.80;;;13.40;86.20;;;15.99;52.01;96695.06;5033989;28;20049;-48
2023/03/13 09:06:35;;;;;;;1.63;1.40;;;13.40;85.20;;;16.06;51.61;96711.94;5033449;28;20046;-46
2023/03/13 09:09:05;;;;;;;1.05;0.80;;;13.40;85.00;;;16.02;51.56;96721.47;5033910;28;20049;-47
2023/03/13 09:11:35;;;;;;;1.40;1.00;;;13.50;83.90;;;16.16;51.18;96704.19;5033423;28;20492;-46
2023/03/13 09:14:02;;;;;;;2.63;1.00;;;13.60;83.70;;;16.32;50.97;96708.19;5032575;28;20049;-50
2023/03/13 09:16:32;;;;;;;1.42;0.98;;;13.70;82.50;;;16.22;50.89;96708.69;5033274;28;20072;-46
2023/03/13 09:19:00;;;;;;;2.45;1.10;;;13.70;82.10;;;16.39;50.44;96708.97;5032921;28;20072;-49
2023/03/13 09:21:32;;;;;;;1.30;1.10;;;13.80;81.20;;;16.43;50.20;96703.97;5033139;28;20423;-46
2023/03/13 09:24:00;;;;;;;2.20;1.35;;;13.80;80.10;;;16.55;50.06;96704.88;5033260;28;20042;-46
2023/03/13 09:26:28;;;;;;;3.10;1.20;;;13.80;80.00;;;16.60;49.63;96720.34;5032987;28;20041;-49
2023/03/13 09:28:56;;;;;;;1.88;1.20;;;13.90;79.60;;;16.66;49.62;96716.78;5033585;28;20037;-48
2023/03/13 09:31:30;;;;;;;3.25;1.50;;;13.90;78.20;;;16.69;49.25;96730.59;5031030;28;20045;-47
2023/03/13 09:33:59;;;;;;;3.60;1.80;;;13.90;78.50;;;16.69;49.14;96724.38;5033432;28;20045;-48
2023/03/13 09:36:27;;;;;;;1.40;1.30;;;13.90;78.00;;;16.62;48.65;96727.13;5032827;28;20051;-46
2023/03/13 09:38:57;;;;;;;3.42;1.30;;;13.90;76.10;;;16.69;48.57;96730.59;5032963;28;20056;-47
2023/03/13 09:42:00;;;;;;;3.13;1.65;;;14.00;76.10;;;16.74;48.79;96727.22;5032788;28;20041;-45
2023/03/13 09:44:35;;;;;;;2.78;2.22;;;14.10;74.90;;;16.90;48.47;96720.47;5032327;28;20052;-48
2023/03/13 09:47:15;;;;;;;2.40;1.38;;;14.10;76.40;;;16.89;48.16;96710.78;5015656;28;20057;-50
2023/03/13 09:50:09;;;;;;;3.63;1.52;;;14.10;75.80;;;16.90;48.19;96712.41;5031940;28;20050;-46
2023/03/13 09:52:40;;;;;;;3.97;1.45;;;14.10;73.90;;;16.98;48.27;96716.66;5031783;28;20072;-50
2023/03/13 09:55:20;;;;;;;2.50;1.50;;;14.20;75.20;;;16.92;47.94;96710.31;5032979;28;20417;-47
2023/03/13 09:58:18;;;;;;;1.75;1.20;;;14.20;73.80;;;16.96;48.23;96694.56;5031534;28;20497;-45
2023/03/13 10:01:08;;;;;;;4.20;2.05;;;14.20;75.10;;;16.94;48.56;96705.53;5031390;28;20410;-45
2023/03/13 10:03:51;;;;;;;3.22;2.17;;;14.10;75.80;;;16.93;48.28;96709.28;5023173;28;20052;-49
2023/03/13 10:06:21;;;;;;;3.42;1.20;;;14.10;76.00;;;16.83;48.71;96706.28;5031098;28;20041;-47
2023/03/13 10:08:51;;;;;;;2.53;1.65;;;14.10;75.90;;;16.84;48.76;96687.22;5031557;28;20521;-48
2023/03/13 10:11:41;;;;;;;2.13;1.48;;;14.10;76.60;;;16.85;49.07;96694.25;5031162;28;20426;-46
2023/03/13 10:14:53;;;;;;;1.40;1.30;;;14.10;77.10;;;16.99;48.75;96697.63;5032639;28;20041;-46
2023/03/13 10:17:38;;;;;;;4.35;2.00;;;14.30;76.30;;;17.12;48.77;96689.38;4992838;28;20434;-45
2023/03/13 10:20:24;;;;;;;3.88;1.30;;;14.40;76.40;;;17.21;48.48;96687.19;5032254;28;20485;-46
2023/03/13 10:23:31;;;;;;;1.77;1.15;;;14.50;75.60;;;17.28;48.72;96684.44;5032145;28;20041;-45
2023/03/13 10:25:59;;;;;;;1.83;1.30;;;14.50;76.40;;;17.36;48.23;96680.63;5024290;28;20063;-49
2023/03/13 10:28:26;;;;;;;1.75;1.45;;;14.50;76.10;;;17.45;48.39;96679.25;5029904;28;20041;-48
2023/03/13 10:31:16;;;;;;;2.13;1.92;;;14.60;75.90;;;17.52;48.33;96669.19;5031837;28;20056;-47
2023/03/13 10:33:44;;;;;;;1.95;1.33;;;14.70;75.60;;;17.58;48.35;96670.97;5030980;28;20052;-48
2023/03/13 10:36:13;;;;;;;2.22;1.65;;;14.80;76.10;;;17.58;48.07;96656.69;5031987;28;20049;-49
2023/03/13 10:38:52;;;;;;;2.33;1.60;;;14.80;75.80;;;17.56;47.81;96650.72;5028793;28;20050;-44
2023/03/13 10:41:32;;;;;;;2.47;1.75;;;14.70;74.00;;;17.52;47.81;96637.75;5030209;28;20381;-46
2023/03/13 10:44:14;;;;;;;2.63;1.40;;;14.70;74.70;;;17.55;47.89;96646.41;5031387;28;20041;-50
2023/03/13 10:46:45;;;;;;;2.95;1.70;;;14.70;75.30;;;17.54;47.79;96648.25;5032447;28;20046;-47
2023/03/13 10:49:23;;;;;;;3.10;2.10;;;14.70;75.10;;;17.55;48.09;96643.72;5031975;28;20045;-48
2023/03/13 10:52:06;;;;;;;2.67;2.25;;;14.70;74.30;;;17.54;47.89;96629.41;5032626;28;20044;-48